Terminal Aerodrome Forecast
Issued by NWS

Home | Current Version | Previous Version | Text Only | Print | Product List | Glossary On
Versions: 1 2 3 4 5 6 7 8 9 10 11 12 13 14 15 16 17 18 19 20 21 22 23 24 25 26 27 28
658
FTUS42 KGSP 311138
TAFHKY
TAF
KHKY 311138Z 3112/0112 01003KT P6SM SCT120
     FM311800 06004KT P6SM BKN045
     FM312000 04004KT P6SM VCTS BKN050CB
     FM312100 04003KT P6SM BKN050 PROB30 3121/0103 4SM -TSRA
      OVC025CB=

USA.gov is the U.S. government's official web portal to all federal, state and local government web resources and services.